Terminal Aerodrome Forecast
Issued by NWS North Platte, NE

Home | Current Version | Previous Version | Graphics & Text | Print | Product List | Glossary On
Versions: 1 2 3 4 5 6 7 8 9 10 11 12 13 14 15 16
000
FTUS43 KLBF 302349 CCA
TAFVTN
TAF COR
KVTN 302349Z 3100/3124 11010KT P6SM VCTS SCT070CB SCT150
     FM310100 13010KT P6SM SCT070 SCT150
     FM310500 20006KT P6SM FEW250
     FM311500 15009KT P6SM FEW250
     FM311800 15012KT P6SM FEW250=

USA.gov is the U.S. government's official web portal to all federal, state and local government web resources and services.